sensor_id;sensor_type;location;lat;lon;timestamp;pressure;altitude;pressure_sealevel;temperature
79488;BMP180;68949;53.176;18.088;2024-01-15T00:01:50;97696.00;;;
79488;BMP180;68949;53.176;18.088;2024-01-15T00:04:17;97693.80;;;
79488;BMP180;68949;53.176;18.088;2024-01-15T00:06:44;97688.00;;;
79488;BMP180;68949;53.176;18.088;2024-01-15T00:09:10;97685.20;;;
79488;BMP180;68949;53.176;18.088;2024-01-15T00:11:40;97676.80;;;
79488;BMP180;68949;53.176;18.088;2024-01-15T00:14:06;97676.00;;;
79488;BMP180;68949;53.176;18.088;2024-01-15T00:16:35;97669.80;;;
79488;BMP180;68949;53.176;18.088;2024-01-15T00:19:02;97674.80;;;
79488;BMP180;68949;53.176;18.088;2024-01-15T00:21:31;97669.00;;;
79488;BMP180;68949;53.176;18.088;2024-01-15T00:23:58;97668.00;;;
79488;BMP180;68949;53.176;18.088;2024-01-15T00:26:25;97663.20;;;
79488;BMP180;68949;53.176;18.088;2024-01-15T00:28:52;97659.80;;;
79488;BMP180;68949;53.176;18.088;2024-01-15T00:31:18;97656.20;;;
79488;BMP180;68949;53.176;18.088;2024-01-15T00:33:45;97650.40;;;
79488;BMP180;68949;53.176;18.088;2024-01-15T00:36:12;97639.00;;;
79488;BMP180;68949;53.176;18.088;2024-01-15T00:38:40;97631.20;;;
79488;BMP180;68949;53.176;18.088;2024-01-15T00:41:07;97632.60;;;
79488;BMP180;68949;53.176;18.088;2024-01-15T00:43:34;97621.20;;;
79488;BMP180;68949;53.176;18.088;2024-01-15T00:46:05;97624.60;;;
79488;BMP180;68949;53.176;18.088;2024-01-15T00:48:32;97631.00;;;
79488;BMP180;68949;53.176;18.088;2024-01-15T00:50:59;97623.80;;;
79488;BMP180;68949;53.176;18.088;2024-01-15T00:53:25;97613.60;;;
79488;BMP180;68949;53.176;18.088;2024-01-15T00:55:52;97608.20;;;
79488;BMP180;68949;53.176;18.088;2024-01-15T00:58:21;97600.00;;;
79488;BMP180;68949;53.176;18.088;2024-01-15T01:00:49;97604.40;;;
79488;BMP180;68949;53.176;18.088;2024-01-15T01:03:16;97591.20;;;
79488;BMP180;68949;53.176;18.088;2024-01-15T01:05:43;97591.00;;;
79488;BMP180;68949;53.176;18.088;2024-01-15T01:08:10;97584.40;;;
79488;BMP180;68949;53.176;18.088;2024-01-15T01:10:38;97573.40;;;
79488;BMP180;68949;53.176;18.088;2024-01-15T01:13:05;97570.40;;;
79488;BMP180;68949;53.176;18.088;2024-01-15T01:15:31;97572.40;;;
79488;BMP180;68949;53.176;18.088;2024-01-15T01:17:58;97566.40;;;
79488;BMP180;68949;53.176;18.088;2024-01-15T01:20:24;97562.20;;;
79488;BMP180;68949;53.176;18.088;2024-01-15T01:22:51;97562.60;;;
79488;BMP180;68949;53.176;18.088;2024-01-15T01:25:18;97551.80;;;
79488;BMP180;68949;53.176;18.088;2024-01-15T01:27:48;97543.00;;;
79488;BMP180;68949;53.176;18.088;2024-01-15T01:30:14;97543.00;;;
79488;BMP180;68949;53.176;18.088;2024-01-15T01:32:42;97548.00;;;
79488;BMP180;68949;53.176;18.088;2024-01-15T01:35:08;97545.20;;;
79488;BMP180;68949;53.176;18.088;2024-01-15T01:37:35;97546.80;;;
79488;BMP180;68949;53.176;18.088;2024-01-15T01:40:02;97541.00;;;
79488;BMP180;68949;53.176;18.088;2024-01-15T01:42:29;97531.20;;;
79488;BMP180;68949;53.176;18.088;2024-01-15T01:44:56;97538.00;;;
79488;BMP180;68949;53.176;18.088;2024-01-15T01:47:23;97531.60;;;
79488;BMP180;68949;53.176;18.088;2024-01-15T01:49:53;97523.60;;;
79488;BMP180;68949;53.176;18.088;2024-01-15T01:52:21;97510.20;;;
79488;BMP180;68949;53.176;18.088;2024-01-15T01:54:49;97508.60;;;
79488;BMP180;68949;53.176;18.088;2024-01-15T01:57:17;97505.80;;;
79488;BMP180;68949;53.176;18.088;2024-01-15T01:59:45;97503.40;;;
79488;BMP180;68949;53.176;18.088;2024-01-15T02:02:13;97502.00;;;
79488;BMP180;68949;53.176;18.088;2024-01-15T02:04:40;97493.00;;;
79488;BMP180;68949;53.176;18.088;2024-01-15T02:07:07;97488.80;;;
79488;BMP180;68949;53.176;18.088;2024-01-15T02:09:33;97486.80;;;
79488;BMP180;68949;53.176;18.088;2024-01-15T02:12:00;97476.00;;;
79488;BMP180;68949;53.176;18.088;2024-01-15T02:14:27;97482.60;;;
79488;BMP180;68949;53.176;18.088;2024-01-15T02:16:54;97477.40;;;
79488;BMP180;68949;53.176;18.088;2024-01-15T02:19:21;97465.00;;;
79488;BMP180;68949;53.176;18.088;2024-01-15T02:21:47;97464.80;;;
79488;BMP180;68949;53.176;18.088;2024-01-15T02:24:14;97456.20;;;
79488;BMP180;68949;53.176;18.088;2024-01-15T02:26:41;97454.60;;;
79488;BMP180;68949;53.176;18.088;2024-01-15T02:29:08;97447.80;;;
79488;BMP180;68949;53.176;18.088;2024-01-15T02:31:36;97450.80;;;
79488;BMP180;68949;53.176;18.088;2024-01-15T02:34:03;97441.60;;;
79488;BMP180;68949;53.176;18.088;2024-01-15T02:36:30;97438.00;;;
79488;BMP180;68949;53.176;18.088;2024-01-15T02:38:56;97439.40;;;
79488;BMP180;68949;53.176;18.088;2024-01-15T02:41:23;97436.80;;;
79488;BMP180;68949;53.176;18.088;2024-01-15T02:43:51;97437.60;;;
79488;BMP180;68949;53.176;18.088;2024-01-15T02:46:17;97438.00;;;
79488;BMP180;68949;53.176;18.088;2024-01-15T02:48:44;97426.20;;;
79488;BMP180;68949;53.176;18.088;2024-01-15T02:51:11;97426.00;;;
79488;BMP180;68949;53.176;18.088;2024-01-15T02:53:39;97419.00;;;
79488;BMP180;68949;53.176;18.088;2024-01-15T02:56:08;97410.80;;;
79488;BMP180;68949;53.176;18.088;2024-01-15T02:58:35;97412.00;;;
79488;BMP180;68949;53.176;18.088;2024-01-15T03:01:02;97404.20;;;
79488;BMP180;68949;53.176;18.088;2024-01-15T03:03:29;97393.60;;;
79488;BMP180;68949;53.176;18.088;2024-01-15T03:05:56;97402.80;;;
79488;BMP180;68949;53.176;18.088;2024-01-15T03:08:22;97386.40;;;
79488;BMP180;68949;53.176;18.088;2024-01-15T03:10:52;97387.60;;;
79488;BMP180;68949;53.176;18.088;2024-01-15T03:13:19;97378.00;;;
79488;BMP180;68949;53.176;18.088;2024-01-15T03:15:46;97375.20;;;
79488;BMP180;68949;53.176;18.088;2024-01-15T03:18:12;97370.00;;;
79488;BMP180;68949;53.176;18.088;2024-01-15T03:20:41;97369.20;;;
79488;BMP180;68949;53.176;18.088;2024-01-15T03:23:09;97364.60;;;
79488;BMP180;68949;53.176;18.088;2024-01-15T03:25:37;97363.80;;;
79488;BMP180;68949;53.176;18.088;2024-01-15T03:28:08;97360.80;;;
79488;BMP180;68949;53.176;18.088;2024-01-15T03:30:34;97359.60;;;
79488;BMP180;68949;53.176;18.088;2024-01-15T03:33:01;97357.60;;;
79488;BMP180;68949;53.176;18.088;2024-01-15T03:35:29;97358.40;;;
79488;BMP180;68949;53.176;18.088;2024-01-15T03:37:59;97356.80;;;
79488;BMP180;68949;53.176;18.088;2024-01-15T03:40:27;97356.00;;;
79488;BMP180;68949;53.176;18.088;2024-01-15T03:42:55;97343.20;;;
79488;BMP180;68949;53.176;18.088;2024-01-15T03:45:23;97347.60;;;
79488;BMP180;68949;53.176;18.088;2024-01-15T03:47:51;97345.80;;;
79488;BMP180;68949;53.176;18.088;2024-01-15T03:50:18;97336.40;;;
79488;BMP180;68949;53.176;18.088;2024-01-15T03:52:45;97331.40;;;
79488;BMP180;68949;53.176;18.088;2024-01-15T03:55:12;97327.60;;;
79488;BMP180;68949;53.176;18.088;2024-01-15T03:57:43;97331.40;;;
79488;BMP180;68949;53.176;18.088;2024-01-15T04:00:14;97330.40;;;
79488;BMP180;68949;53.176;18.088;2024-01-15T04:02:42;97321.00;;;
79488;BMP180;68949;53.176;18.088;2024-01-15T04:05:08;97327.60;;;
79488;BMP180;68949;53.176;18.088;2024-01-15T04:07:37;97320.20;;;
79488;BMP180;68949;53.176;18.088;2024-01-15T04:10:05;97317.00;;;
79488;BMP180;68949;53.176;18.088;2024-01-15T04:12:32;97310.40;;;
79488;BMP180;68949;53.176;18.088;2024-01-15T04:15:00;97310.00;;;
79488;BMP180;68949;53.176;18.088;2024-01-15T04:17:27;97315.20;;;
79488;BMP180;68949;53.176;18.088;2024-01-15T04:19:56;97299.80;;;
79488;BMP180;68949;53.176;18.088;2024-01-15T04:22:26;97306.80;;;
79488;BMP180;68949;53.176;18.088;2024-01-15T04:24:58;97306.40;;;
79488;BMP180;68949;53.176;18.088;2024-01-15T04:27:27;97315.60;;;
79488;BMP180;68949;53.176;18.088;2024-01-15T04:29:55;97309.80;;;
79488;BMP180;68949;53.176;18.088;2024-01-15T04:32:22;97311.60;;;
79488;BMP180;68949;53.176;18.088;2024-01-15T04:34:49;97298.00;;;
79488;BMP180;68949;53.176;18.088;2024-01-15T04:37:16;97288.20;;;
79488;BMP180;68949;53.176;18.088;2024-01-15T04:39:45;97292.80;;;
79488;BMP180;68949;53.176;18.088;2024-01-15T04:42:14;97283.60;;;
79488;BMP180;68949;53.176;18.088;2024-01-15T04:44:41;97274.80;;;
79488;BMP180;68949;53.176;18.088;2024-01-15T04:47:07;97277.20;;;
79488;BMP180;68949;53.176;18.088;2024-01-15T04:49:34;97266.00;;;
79488;BMP180;68949;53.176;18.088;2024-01-15T04:52:01;97267.40;;;
79488;BMP180;68949;53.176;18.088;2024-01-15T04:54:28;97261.00;;;
79488;BMP180;68949;53.176;18.088;2024-01-15T04:56:55;97257.60;;;
79488;BMP180;68949;53.176;18.088;2024-01-15T04:59:24;97256.60;;;
79488;BMP180;68949;53.176;18.088;2024-01-15T05:01:57;97261.40;;;
79488;BMP180;68949;53.176;18.088;2024-01-15T05:04:24;97266.60;;;
79488;BMP180;68949;53.176;18.088;2024-01-15T05:06:51;97267.40;;;
79488;BMP180;68949;53.176;18.088;2024-01-15T05:09:18;97265.80;;;
79488;BMP180;68949;53.176;18.088;2024-01-15T05:11:45;97251.60;;;
79488;BMP180;68949;53.176;18.088;2024-01-15T05:14:12;97256.00;;;
79488;BMP180;68949;53.176;18.088;2024-01-15T05:16:39;97257.20;;;
79488;BMP180;68949;53.176;18.088;2024-01-15T05:19:07;97257.20;;;
79488;BMP180;68949;53.176;18.088;2024-01-15T05:21:34;97260.40;;;
79488;BMP180;68949;53.176;18.088;2024-01-15T05:24:01;97259.20;;;
79488;BMP180;68949;53.176;18.088;2024-01-15T05:26:28;97264.00;;;
79488;BMP180;68949;53.176;18.088;2024-01-15T05:28:55;97263.80;;;
79488;BMP180;68949;53.176;18.088;2024-01-15T05:31:22;97260.40;;;
79488;BMP180;68949;53.176;18.088;2024-01-15T05:34:15;97250.20;;;
79488;BMP180;68949;53.176;18.088;2024-01-15T05:36:43;97248.00;;;
79488;BMP180;68949;53.176;18.088;2024-01-15T05:39:10;97248.60;;;
79488;BMP180;68949;53.176;18.088;2024-01-15T05:41:37;97254.60;;;
79488;BMP180;68949;53.176;18.088;2024-01-15T05:44:04;97254.60;;;
79488;BMP180;68949;53.176;18.088;2024-01-15T05:46:31;97250.80;;;
79488;BMP180;68949;53.176;18.088;2024-01-15T05:48:57;97246.60;;;
79488;BMP180;68949;53.176;18.088;2024-01-15T05:51:24;97244.80;;;
79488;BMP180;68949;53.176;18.088;2024-01-15T05:53:51;97243.20;;;
79488;BMP180;68949;53.176;18.088;2024-01-15T05:56:17;97245.20;;;
79488;BMP180;68949;53.176;18.088;2024-01-15T05:58:44;97236.20;;;
79488;BMP180;68949;53.176;18.088;2024-01-15T06:01:11;97240.40;;;
79488;BMP180;68949;53.176;18.088;2024-01-15T06:03:43;97233.40;;;
79488;BMP180;68949;53.176;18.088;2024-01-15T06:06:10;97228.00;;;
79488;BMP180;68949;53.176;18.088;2024-01-15T06:08:37;97226.80;;;
79488;BMP180;68949;53.176;18.088;2024-01-15T06:11:06;97220.80;;;
79488;BMP180;68949;53.176;18.088;2024-01-15T06:13:33;97216.00;;;
79488;BMP180;68949;53.176;18.088;2024-01-15T06:15:59;97226.40;;;
79488;BMP180;68949;53.176;18.088;2024-01-15T06:18:26;97221.00;;;
79488;BMP180;68949;53.176;18.088;2024-01-15T06:20:53;97227.40;;;
79488;BMP180;68949;53.176;18.088;2024-01-15T06:23:19;97219.80;;;
79488;BMP180;68949;53.176;18.088;2024-01-15T06:25:46;97223.80;;;
79488;BMP180;68949;53.176;18.088;2024-01-15T06:28:13;97224.80;;;
79488;BMP180;68949;53.176;18.088;2024-01-15T06:30:39;97230.40;;;
79488;BMP180;68949;53.176;18.088;2024-01-15T06:33:06;97228.00;;;
79488;BMP180;68949;53.176;18.088;2024-01-15T06:35:33;97228.00;;;
79488;BMP180;68949;53.176;18.088;2024-01-15T06:38:00;97221.00;;;
79488;BMP180;68949;53.176;18.088;2024-01-15T06:40:27;97218.80;;;
79488;BMP180;68949;53.176;18.088;2024-01-15T06:42:54;97219.20;;;
79488;BMP180;68949;53.176;18.088;2024-01-15T06:45:20;97221.20;;;
79488;BMP180;68949;53.176;18.088;2024-01-15T06:47:47;97225.00;;;
79488;BMP180;68949;53.176;18.088;2024-01-15T06:50:14;97218.60;;;
79488;BMP180;68949;53.176;18.088;2024-01-15T06:52:40;97218.40;;;
79488;BMP180;68949;53.176;18.088;2024-01-15T06:55:07;97224.20;;;
79488;BMP180;68949;53.176;18.088;2024-01-15T06:57:34;97216.20;;;
79488;BMP180;68949;53.176;18.088;2024-01-15T07:00:01;97217.60;;;
79488;BMP180;68949;53.176;18.088;2024-01-15T07:02:34;97209.60;;;
79488;BMP180;68949;53.176;18.088;2024-01-15T07:05:00;97217.60;;;
79488;BMP180;68949;53.176;18.088;2024-01-15T07:07:27;97210.00;;;
79488;BMP180;68949;53.176;18.088;2024-01-15T07:09:59;97199.40;;;
79488;BMP180;68949;53.176;18.088;2024-01-15T07:12:25;97203.40;;;
79488;BMP180;68949;53.176;18.088;2024-01-15T07:14:52;97206.20;;;
79488;BMP180;68949;53.176;18.088;2024-01-15T07:17:18;97211.60;;;
79488;BMP180;68949;53.176;18.088;2024-01-15T07:19:45;97204.60;;;
79488;BMP180;68949;53.176;18.088;2024-01-15T07:22:14;97212.00;;;
79488;BMP180;68949;53.176;18.088;2024-01-15T07:24:41;97213.80;;;
79488;BMP180;68949;53.176;18.088;2024-01-15T07:27:08;97211.80;;;
79488;BMP180;68949;53.176;18.088;2024-01-15T07:29:35;97215.40;;;
79488;BMP180;68949;53.176;18.088;2024-01-15T07:32:05;97216.40;;;
79488;BMP180;68949;53.176;18.088;2024-01-15T07:34:34;97224.80;;;
79488;BMP180;68949;53.176;18.088;2024-01-15T07:37:01;97224.60;;;
79488;BMP180;68949;53.176;18.088;2024-01-15T07:39:27;97226.00;;;
79488;BMP180;68949;53.176;18.088;2024-01-15T07:41:55;97229.20;;;
79488;BMP180;68949;53.176;18.088;2024-01-15T07:44:22;97227.00;;;
79488;BMP180;68949;53.176;18.088;2024-01-15T07:46:49;97211.40;;;
79488;BMP180;68949;53.176;18.088;2024-01-15T07:49:16;97227.40;;;
79488;BMP180;68949;53.176;18.088;2024-01-15T07:51:43;97221.60;;;
79488;BMP180;68949;53.176;18.088;2024-01-15T07:54:10;97215.80;;;
79488;BMP180;68949;53.176;18.088;2024-01-15T07:57:02;97220.00;;;
79488;BMP180;68949;53.176;18.088;2024-01-15T07:59:30;97216.80;;;
79488;BMP180;68949;53.176;18.088;2024-01-15T08:01:59;97217.80;;;
79488;BMP180;68949;53.176;18.088;2024-01-15T08:04:26;97202.00;;;
79488;BMP180;68949;53.176;18.088;2024-01-15T08:06:52;97208.20;;;
79488;BMP180;68949;53.176;18.088;2024-01-15T08:09:19;97211.20;;;
79488;BMP180;68949;53.176;18.088;2024-01-15T08:11:46;97198.20;;;
79488;BMP180;68949;53.176;18.088;2024-01-15T08:14:13;97201.40;;;
79488;BMP180;68949;53.176;18.088;2024-01-15T08:16:39;97185.20;;;
79488;BMP180;68949;53.176;18.088;2024-01-15T08:19:07;97186.40;;;
79488;BMP180;68949;53.176;18.088;2024-01-15T08:21:33;97189.80;;;
79488;BMP180;68949;53.176;18.088;2024-01-15T08:24:02;97194.40;;;
79488;BMP180;68949;53.176;18.088;2024-01-15T08:26:32;97191.60;;;
79488;BMP180;68949;53.176;18.088;2024-01-15T08:29:02;97189.80;;;
79488;BMP180;68949;53.176;18.088;2024-01-15T08:31:29;97186.60;;;
79488;BMP180;68949;53.176;18.088;2024-01-15T08:33:59;97176.20;;;
79488;BMP180;68949;53.176;18.088;2024-01-15T08:36:30;97177.40;;;
79488;BMP180;68949;53.176;18.088;2024-01-15T08:38:57;97172.20;;;
79488;BMP180;68949;53.176;18.088;2024-01-15T08:41:24;97181.20;;;
79488;BMP180;68949;53.176;18.088;2024-01-15T08:43:51;97174.60;;;
79488;BMP180;68949;53.176;18.088;2024-01-15T08:46:19;97183.00;;;
79488;BMP180;68949;53.176;18.088;2024-01-15T08:48:50;97174.00;;;
79488;BMP180;68949;53.176;18.088;2024-01-15T08:51:16;97175.40;;;
79488;BMP180;68949;53.176;18.088;2024-01-15T08:53:45;97167.00;;;
79488;BMP180;68949;53.176;18.088;2024-01-15T08:56:12;97161.80;;;
79488;BMP180;68949;53.176;18.088;2024-01-15T08:58:39;97149.80;;;
79488;BMP180;68949;53.176;18.088;2024-01-15T09:01:05;97164.00;;;
79488;BMP180;68949;53.176;18.088;2024-01-15T09:03:33;97162.00;;;
79488;BMP180;68949;53.176;18.088;2024-01-15T09:06:03;97173.00;;;
79488;BMP180;68949;53.176;18.088;2024-01-15T09:08:32;97172.00;;;
79488;BMP180;68949;53.176;18.088;2024-01-15T09:11:05;97165.40;;;
79488;BMP180;68949;53.176;18.088;2024-01-15T09:13:32;97157.80;;;
79488;BMP180;68949;53.176;18.088;2024-01-15T09:16:07;97159.00;;;
79488;BMP180;68949;53.176;18.088;2024-01-15T09:18:34;97154.20;;;
79488;BMP180;68949;53.176;18.088;2024-01-15T09:21:04;97162.20;;;
79488;BMP180;68949;53.176;18.088;2024-01-15T09:23:31;97168.20;;;
79488;BMP180;68949;53.176;18.088;2024-01-15T09:26:03;97180.00;;;
79488;BMP180;68949;53.176;18.088;2024-01-15T09:28:30;97165.00;;;
79488;BMP180;68949;53.176;18.088;2024-01-15T09:31:07;97147.40;;;
79488;BMP180;68949;53.176;18.088;2024-01-15T09:33:35;97162.60;;;
79488;BMP180;68949;53.176;18.088;2024-01-15T09:36:03;97163.40;;;
79488;BMP180;68949;53.176;18.088;2024-01-15T09:38:32;97157.00;;;
79488;BMP180;68949;53.176;18.088;2024-01-15T09:41:03;97151.20;;;
79488;BMP180;68949;53.176;18.088;2024-01-15T09:43:33;97153.00;;;
79488;BMP180;68949;53.176;18.088;2024-01-15T09:46:11;97154.60;;;
79488;BMP180;68949;53.176;18.088;2024-01-15T09:48:44;97151.40;;;
79488;BMP180;68949;53.176;18.088;2024-01-15T09:51:12;97143.80;;;
79488;BMP180;68949;53.176;18.088;2024-01-15T09:53:42;97141.20;;;
79488;BMP180;68949;53.176;18.088;2024-01-15T09:56:14;97152.60;;;
79488;BMP180;68949;53.176;18.088;2024-01-15T09:58:46;97143.00;;;
79488;BMP180;68949;53.176;18.088;2024-01-15T10:01:17;97148.80;;;
79488;BMP180;68949;53.176;18.088;2024-01-15T10:03:51;97152.60;;;
79488;BMP180;68949;53.176;18.088;2024-01-15T10:06:22;97146.40;;;
79488;BMP180;68949;53.176;18.088;2024-01-15T10:08:54;97155.80;;;
79488;BMP180;68949;53.176;18.088;2024-01-15T10:11:23;97171.60;;;
79488;BMP180;68949;53.176;18.088;2024-01-15T10:13:52;97180.20;;;
79488;BMP180;68949;53.176;18.088;2024-01-15T10:16:26;97177.40;;;
79488;BMP180;68949;53.176;18.088;2024-01-15T10:19:00;97176.20;;;
79488;BMP180;68949;53.176;18.088;2024-01-15T10:21:36;97173.60;;;
79488;BMP180;68949;53.176;18.088;2024-01-15T10:24:12;97169.80;;;
79488;BMP180;68949;53.176;18.088;2024-01-15T10:26:43;97167.40;;;
79488;BMP180;68949;53.176;18.088;2024-01-15T10:29:14;97167.00;;;
79488;BMP180;68949;53.176;18.088;2024-01-15T10:31:41;97159.60;;;
79488;BMP180;68949;53.176;18.088;2024-01-15T10:34:13;97150.20;;;
79488;BMP180;68949;53.176;18.088;2024-01-15T10:37:10;97150.80;;;
79488;BMP180;68949;53.176;18.088;2024-01-15T10:39:37;97142.40;;;
79488;BMP180;68949;53.176;18.088;2024-01-15T10:42:04;97131.20;;;
79488;BMP180;68949;53.176;18.088;2024-01-15T10:44:31;97130.00;;;
79488;BMP180;68949;53.176;18.088;2024-01-15T10:46:58;97132.40;;;
79488;BMP180;68949;53.176;18.088;2024-01-15T10:49:26;97129.20;;;
79488;BMP180;68949;53.176;18.088;2024-01-15T10:51:57;97128.00;;;
79488;BMP180;68949;53.176;18.088;2024-01-15T10:54:24;97138.40;;;
79488;BMP180;68949;53.176;18.088;2024-01-15T10:56:56;97139.20;;;
79488;BMP180;68949;53.176;18.088;2024-01-15T10:59:22;97138.60;;;
79488;BMP180;68949;53.176;18.088;2024-01-15T11:01:52;97135.60;;;
79488;BMP180;68949;53.176;18.088;2024-01-15T11:04:22;97131.80;;;
79488;BMP180;68949;53.176;18.088;2024-01-15T11:06:52;97136.80;;;
79488;BMP180;68949;53.176;18.088;2024-01-15T11:09:20;97140.20;;;
79488;BMP180;68949;53.176;18.088;2024-01-15T11:11:47;97136.00;;;
79488;BMP180;68949;53.176;18.088;2024-01-15T11:14:41;97131.20;;;
79488;BMP180;68949;53.176;18.088;2024-01-15T11:17:11;97144.20;;;
79488;BMP180;68949;53.176;18.088;2024-01-15T11:19:45;97152.00;;;
79488;BMP180;68949;53.176;18.088;2024-01-15T11:25:13;97169.60;;;
79488;BMP180;68949;53.176;18.088;2024-01-15T11:27:51;97179.20;;;
79488;BMP180;68949;53.176;18.088;2024-01-15T11:30:19;97182.80;;;
79488;BMP180;68949;53.176;18.088;2024-01-15T11:32:46;97185.60;;;
79488;BMP180;68949;53.176;18.088;2024-01-15T11:35:14;97191.00;;;
79488;BMP180;68949;53.176;18.088;2024-01-15T11:40:20;97185.00;;;
79488;BMP180;68949;53.176;18.088;2024-01-15T11:42:49;97182.20;;;
79488;BMP180;68949;53.176;18.088;2024-01-15T11:45:20;97180.00;;;
79488;BMP180;68949;53.176;18.088;2024-01-15T11:48:10;97184.00;;;
79488;BMP180;68949;53.176;18.088;2024-01-15T11:50:46;97173.00;;;
79488;BMP180;68949;53.176;18.088;2024-01-15T11:53:44;97165.60;;;
79488;BMP180;68949;53.176;18.088;2024-01-15T11:56:40;97154.00;;;
79488;BMP180;68949;53.176;18.088;2024-01-15T11:59:10;97148.60;;;
79488;BMP180;68949;53.176;18.088;2024-01-15T12:01:41;97145.80;;;
79488;BMP180;68949;53.176;18.088;2024-01-15T12:04:12;97142.00;;;
79488;BMP180;68949;53.176;18.088;2024-01-15T12:06:49;97143.80;;;
79488;BMP180;68949;53.176;18.088;2024-01-15T12:09:24;97156.20;;;
79488;BMP180;68949;53.176;18.088;2024-01-15T12:12:07;97156.40;;;
79488;BMP180;68949;53.176;18.088;2024-01-15T12:15:05;97169.40;;;
79488;BMP180;68949;53.176;18.088;2024-01-15T12:17:32;97180.80;;;
79488;BMP180;68949;53.176;18.088;2024-01-15T12:19:59;97168.60;;;
79488;BMP180;68949;53.176;18.088;2024-01-15T12:22:26;97147.80;;;
79488;BMP180;68949;53.176;18.088;2024-01-15T12:24:56;97130.80;;;
79488;BMP180;68949;53.176;18.088;2024-01-15T12:27:24;97117.00;;;
79488;BMP180;68949;53.176;18.088;2024-01-15T12:29:55;97117.40;;;
79488;BMP180;68949;53.176;18.088;2024-01-15T12:32:30;97125.20;;;
79488;BMP180;68949;53.176;18.088;2024-01-15T12:35:00;97128.40;;;
79488;BMP180;68949;53.176;18.088;2024-01-15T12:37:30;97126.80;;;
79488;BMP180;68949;53.176;18.088;2024-01-15T12:40:09;97140.80;;;
79488;BMP180;68949;53.176;18.088;2024-01-15T12:42:48;97134.60;;;
79488;BMP180;68949;53.176;18.088;2024-01-15T12:45:16;97136.20;;;
79488;BMP180;68949;53.176;18.088;2024-01-15T12:47:46;97138.60;;;
79488;BMP180;68949;53.176;18.088;2024-01-15T12:50:24;97124.80;;;
79488;BMP180;68949;53.176;18.088;2024-01-15T12:53:02;97128.00;;;
79488;BMP180;68949;53.176;18.088;2024-01-15T12:55:31;97122.80;;;
79488;BMP180;68949;53.176;18.088;2024-01-15T12:57:58;97135.60;;;
79488;BMP180;68949;53.176;18.088;2024-01-15T13:00:25;97137.80;;;
79488;BMP180;68949;53.176;18.088;2024-01-15T13:02:52;97132.00;;;
79488;BMP180;68949;53.176;18.088;2024-01-15T13:05:22;97135.20;;;
79488;BMP180;68949;53.176;18.088;2024-01-15T13:07:50;97121.80;;;
79488;BMP180;68949;53.176;18.088;2024-01-15T13:10:20;97130.20;;;
79488;BMP180;68949;53.176;18.088;2024-01-15T13:12:47;97139.80;;;
79488;BMP180;68949;53.176;18.088;2024-01-15T13:15:14;97127.40;;;
79488;BMP180;68949;53.176;18.088;2024-01-15T13:17:45;97126.60;;;
79488;BMP180;68949;53.176;18.088;2024-01-15T13:20:15;97129.40;;;
79488;BMP180;68949;53.176;18.088;2024-01-15T13:22:42;97118.40;;;
79488;BMP180;68949;53.176;18.088;2024-01-15T13:25:16;97124.00;;;
79488;BMP180;68949;53.176;18.088;2024-01-15T13:27:45;97126.60;;;
79488;BMP180;68949;53.176;18.088;2024-01-15T13:30:13;97095.00;;;
79488;BMP180;68949;53.176;18.088;2024-01-15T13:32:42;97102.40;;;
79488;BMP180;68949;53.176;18.088;2024-01-15T13:35:09;97124.80;;;
79488;BMP180;68949;53.176;18.088;2024-01-15T13:37:39;97138.40;;;
79488;BMP180;68949;53.176;18.088;2024-01-15T13:40:10;97155.40;;;
79488;BMP180;68949;53.176;18.088;2024-01-15T13:42:45;97154.20;;;
79488;BMP180;68949;53.176;18.088;2024-01-15T13:45:12;97158.20;;;
79488;BMP180;68949;53.176;18.088;2024-01-15T13:47:42;97165.20;;;
79488;BMP180;68949;53.176;18.088;2024-01-15T13:50:10;97166.00;;;
79488;BMP180;68949;53.176;18.088;2024-01-15T13:52:38;97169.80;;;
79488;BMP180;68949;53.176;18.088;2024-01-15T13:55:09;97162.60;;;
79488;BMP180;68949;53.176;18.088;2024-01-15T13:57:39;97190.60;;;
79488;BMP180;68949;53.176;18.088;2024-01-15T14:00:13;97185.60;;;
79488;BMP180;68949;53.176;18.088;2024-01-15T14:02:46;97184.60;;;
79488;BMP180;68949;53.176;18.088;2024-01-15T14:05:15;97201.00;;;
79488;BMP180;68949;53.176;18.088;2024-01-15T14:07:47;97203.40;;;
79488;BMP180;68949;53.176;18.088;2024-01-15T14:10:24;97208.40;;;
79488;BMP180;68949;53.176;18.088;2024-01-15T14:12:50;97220.20;;;
79488;BMP180;68949;53.176;18.088;2024-01-15T14:15:21;97229.80;;;
79488;BMP180;68949;53.176;18.088;2024-01-15T14:17:48;97239.00;;;
79488;BMP180;68949;53.176;18.088;2024-01-15T14:20:15;97246.80;;;
79488;BMP180;68949;53.176;18.088;2024-01-15T14:22:44;97244.80;;;
79488;BMP180;68949;53.176;18.088;2024-01-15T14:25:11;97237.00;;;
79488;BMP180;68949;53.176;18.088;2024-01-15T14:27:38;97230.20;;;
79488;BMP180;68949;53.176;18.088;2024-01-15T14:30:07;97230.00;;;
79488;BMP180;68949;53.176;18.088;2024-01-15T14:32:37;97230.00;;;
79488;BMP180;68949;53.176;18.088;2024-01-15T14:35:07;97241.40;;;
79488;BMP180;68949;53.176;18.088;2024-01-15T14:37:37;97241.00;;;
79488;BMP180;68949;53.176;18.088;2024-01-15T14:40:07;97238.60;;;
79488;BMP180;68949;53.176;18.088;2024-01-15T14:42:34;97237.00;;;
79488;BMP180;68949;53.176;18.088;2024-01-15T14:45:03;97241.20;;;
79488;BMP180;68949;53.176;18.088;2024-01-15T14:47:33;97243.60;;;
79488;BMP180;68949;53.176;18.088;2024-01-15T14:50:02;97247.00;;;
79488;BMP180;68949;53.176;18.088;2024-01-15T14:52:30;97243.60;;;
79488;BMP180;68949;53.176;18.088;2024-01-15T14:54:59;97244.80;;;
79488;BMP180;68949;53.176;18.088;2024-01-15T14:57:26;97252.80;;;
79488;BMP180;68949;53.176;18.088;2024-01-15T14:59:53;97242.80;;;
79488;BMP180;68949;53.176;18.088;2024-01-15T15:02:20;97246.60;;;
79488;BMP180;68949;53.176;18.088;2024-01-15T15:04:47;97254.80;;;
79488;BMP180;68949;53.176;18.088;2024-01-15T15:07:14;97242.00;;;
79488;BMP180;68949;53.176;18.088;2024-01-15T15:09:40;97245.80;;;
79488;BMP180;68949;53.176;18.088;2024-01-15T15:12:07;97242.20;;;
79488;BMP180;68949;53.176;18.088;2024-01-15T15:14:35;97247.20;;;
79488;BMP180;68949;53.176;18.088;2024-01-15T15:17:05;97246.20;;;